Gustavus Information

FAA: GST - ICAO: PAGS

Gustavus (Airport) Location

State Alaska
County Angoon
City Gustavus
Gustavus (Airport) is 0 miles northeast of Gustavus, AK.
Latitude 58-25-31.0000N
Longitude 135-42-26.7000W
Elevation 36ft

Gustavus METARs

METAR PAGS 172056Z AUTO 12007G16KT 10SM FEW032 BKN045 OVC055 09/01 A2993 RMK AO2 SLP134 T00940011 51003
Altimeter 29.93"
Temperature 9.4°C (48.9°F)
Wind 120° at 7KT with gusts to 16KT
Clouds few at 3,200ft broken at 4,500ft overcast at 5,500ft
Visibility 10.0mi
Time observed: 2022-05-17T20:56:00Z

Gustavus (Airport) Details

Status Operational
Activation January 1949
Ownership Public
Usage Public
Chart JUNEAU
ATC on-site No
Beacon schedule sunset-sunrise
Beacon color clear green

Gustavus (Airport) Contacts

Owner ALASKA DOT&PF SOUTHCOAST REGION
Owner address 6860 GLACIER HWY, JUNEAU, AK 99801-7999
Owner phone 907-465-1786
Manager TOM WILLIAMS
Manager address 2301 PEGER ROAD, FAIRBANKS, AK 99709
Manager phone (907) 451-5280

Gustavus Radio Frequencies

Gustavus (Airport) Radio Frequencies

UNICOM N/A
Common traffic advisory frequency (CTAF) 122.5